createdAt,value
2017-07-19T00:00:14.852Z,22.14
2017-07-19T00:01:12.851Z,22.15
2017-07-19T00:02:09.954Z,22.15
2017-07-19T00:03:06.186Z,22.13
2017-07-19T00:04:02.609Z,22.14
2017-07-19T00:04:58.963Z,22.13
2017-07-19T00:05:55.299Z,22.14
2017-07-19T00:06:51.545Z,22.13
2017-07-19T00:07:47.774Z,22.14
2017-07-19T00:08:43.989Z,22.14
2017-07-19T00:09:40.227Z,22.14
2017-07-19T00:10:36.477Z,22.13
2017-07-19T00:11:32.695Z,22.13
2017-07-19T00:12:28.910Z,22.12
2017-07-19T00:13:25.161Z,22.12
2017-07-19T00:14:21.394Z,22.11
2017-07-19T00:15:17.618Z,22.11
2017-07-19T00:16:13.850Z,22.11
2017-07-19T00:17:10.103Z,22.10
2017-07-19T00:18:06.350Z,22.11
2017-07-19T00:19:02.574Z,22.11
2017-07-19T00:19:58.795Z,22.10
2017-07-19T00:20:55.030Z,22.10
2017-07-19T00:21:51.250Z,22.12
2017-07-19T00:22:47.473Z,22.10
2017-07-19T00:23:43.690Z,22.11
2017-07-19T00:24:39.905Z,22.10
2017-07-19T00:25:36.144Z,22.11
2017-07-19T00:26:32.379Z,22.11
2017-07-19T00:27:28.617Z,22.11
2017-07-19T00:28:24.854Z,22.11
2017-07-19T00:29:21.074Z,22.10
2017-07-19T00:30:17.311Z,22.10
2017-07-19T00:31:13.578Z,22.11
2017-07-19T00:32:09.798Z,22.10
2017-07-19T00:33:06.026Z,22.10
2017-07-19T00:34:02.268Z,22.09
2017-07-19T00:34:58.486Z,22.09
2017-07-19T00:35:54.722Z,22.09
2017-07-19T00:36:50.959Z,22.08
2017-07-19T00:37:47.182Z,22.08
2017-07-19T00:38:43.410Z,22.09
2017-07-19T00:39:39.638Z,22.09
2017-07-19T00:40:35.858Z,22.09
2017-07-19T00:41:32.086Z,22.08
2017-07-19T00:42:28.325Z,22.07
2017-07-19T00:43:24.550Z,22.07
2017-07-19T00:44:20.770Z,22.06
2017-07-19T00:45:17.002Z,22.06
2017-07-19T00:46:13.241Z,22.04
2017-07-19T00:47:09.493Z,22.03
2017-07-19T00:48:05.749Z,22.03
2017-07-19T00:49:01.983Z,22.01
2017-07-19T00:49:58.221Z,22.01
2017-07-19T00:50:54.462Z,22.01
2017-07-19T00:51:50.690Z,22.00
2017-07-19T00:52:46.944Z,21.99
2017-07-19T00:53:43.173Z,21.99
2017-07-19T00:54:39.416Z,21.98
2017-07-19T00:55:35.646Z,21.98
2017-07-19T00:56:31.878Z,21.98
2017-07-19T00:57:28.122Z,21.97
2017-07-19T00:58:24.353Z,21.96
2017-07-19T00:59:20.594Z,21.95
2017-07-19T01:00:16.845Z,21.94
2017-07-19T01:01:13.087Z,21.93
2017-07-19T01:02:09.326Z,21.93
2017-07-19T01:03:05.570Z,21.92
2017-07-19T01:04:01.805Z,21.90
2017-07-19T01:04:58.039Z,21.90
2017-07-19T01:05:54.262Z,21.90
2017-07-19T01:06:50.498Z,21.89
2017-07-19T01:07:46.730Z,21.87
2017-07-19T01:08:42.977Z,21.86
2017-07-19T01:09:39.219Z,21.86
2017-07-19T01:10:35.445Z,21.85
2017-07-19T01:11:31.686Z,21.84
2017-07-19T01:12:27.907Z,21.82
2017-07-19T01:13:24.137Z,21.81
2017-07-19T01:14:20.384Z,21.81
2017-07-19T01:15:16.615Z,21.79
2017-07-19T01:16:12.855Z,21.78
2017-07-19T01:17:09.099Z,21.78
2017-07-19T01:18:05.334Z,21.77
2017-07-19T01:19:01.582Z,21.77
2017-07-19T01:19:57.801Z,21.76
2017-07-19T01:20:54.035Z,21.75
2017-07-19T01:21:50.257Z,21.76
2017-07-19T01:22:46.482Z,21.75
2017-07-19T01:23:42.736Z,21.74
2017-07-19T01:24:38.984Z,21.73
2017-07-19T01:25:35.223Z,21.72
2017-07-19T01:26:31.485Z,21.70
2017-07-19T01:27:27.699Z,21.71
2017-07-19T01:28:23.930Z,21.69
2017-07-19T01:29:20.174Z,21.68
2017-07-19T01:30:16.402Z,21.67
2017-07-19T01:31:12.646Z,21.66
2017-07-19T01:32:08.867Z,21.64
2017-07-19T01:33:05.102Z,21.64
2017-07-19T01:34:01.324Z,21.63
2017-07-19T01:34:57.583Z,21.61
2017-07-19T01:35:53.821Z,21.59
2017-07-19T01:36:50.059Z,21.58
2017-07-19T01:37:46.290Z,21.58
2017-07-19T01:38:42.515Z,21.58
2017-07-19T01:39:38.754Z,21.59
2017-07-19T01:40:34.998Z,21.58
2017-07-19T01:41:31.222Z,21.57
2017-07-19T01:42:27.450Z,21.56
2017-07-19T01:43:23.677Z,21.57
2017-07-19T01:44:19.904Z,21.54
2017-07-19T01:45:16.163Z,21.53
2017-07-19T01:46:12.409Z,21.52
2017-07-19T01:47:08.647Z,21.52
2017-07-19T01:48:04.905Z,21.50
2017-07-19T01:49:01.142Z,21.49
2017-07-19T01:49:57.373Z,21.49
2017-07-19T01:50:53.667Z,21.48
2017-07-19T01:51:49.898Z,21.47
2017-07-19T01:52:46.134Z,21.47
2017-07-19T01:53:42.361Z,21.43
2017-07-19T01:54:38.594Z,21.43
2017-07-19T01:55:34.809Z,21.42
2017-07-19T01:56:31.050Z,21.40
2017-07-19T01:57:27.280Z,21.41
2017-07-19T01:58:23.539Z,21.37
2017-07-19T01:59:19.790Z,21.37
2017-07-19T02:00:16.010Z,21.37
2017-07-19T02:01:12.250Z,21.35
2017-07-19T02:02:08.469Z,21.34
2017-07-19T02:03:04.705Z,21.31
2017-07-19T02:04:00.926Z,21.30
2017-07-19T02:04:57.162Z,21.29
2017-07-19T02:05:53.423Z,21.28
2017-07-19T02:06:49.662Z,21.28
2017-07-19T02:07:45.903Z,21.26
2017-07-19T02:08:42.139Z,21.25
2017-07-19T02:09:38.390Z,21.24
2017-07-19T02:10:34.629Z,21.23
2017-07-19T02:11:30.861Z,21.21
2017-07-19T02:12:27.090Z,21.20
2017-07-19T02:13:23.310Z,21.19
2017-07-19T02:14:19.529Z,21.18
2017-07-19T02:15:15.760Z,21.17
2017-07-19T02:16:11.998Z,21.16
2017-07-19T02:17:08.246Z,21.15
2017-07-19T02:18:04.478Z,21.14
2017-07-19T02:19:00.706Z,21.13
2017-07-19T02:19:56.945Z,21.12
2017-07-19T02:20:53.172Z,21.11
2017-07-19T02:21:49.422Z,21.11
2017-07-19T02:22:45.651Z,21.10
2017-07-19T02:23:41.888Z,21.09
2017-07-19T02:24:38.105Z,21.08
2017-07-19T02:25:34.343Z,21.07
2017-07-19T02:26:30.562Z,21.07
2017-07-19T02:27:26.807Z,21.07
2017-07-19T02:28:23.046Z,21.06
2017-07-19T02:29:19.279Z,21.05
2017-07-19T02:30:15.506Z,21.04
2017-07-19T02:31:11.751Z,21.04
2017-07-19T02:32:07.965Z,21.02
2017-07-19T02:33:04.208Z,21.01
2017-07-19T02:34:00.434Z,21.00
2017-07-19T02:34:56.657Z,20.99
2017-07-19T02:35:52.887Z,20.98
2017-07-19T02:36:49.125Z,20.96
2017-07-19T02:37:45.366Z,20.97
2017-07-19T02:38:41.615Z,20.95
2017-07-19T02:39:37.866Z,20.93
2017-07-19T02:40:34.110Z,20.93
2017-07-19T02:41:30.350Z,20.92
2017-07-19T02:42:26.589Z,20.91
2017-07-19T02:43:22.818Z,20.91
2017-07-19T02:44:19.053Z,20.90
2017-07-19T02:45:15.282Z,20.88
2017-07-19T02:46:11.517Z,20.88
2017-07-19T02:47:07.743Z,20.86
2017-07-19T02:48:03.993Z,20.85
2017-07-19T02:49:00.221Z,20.85
2017-07-19T02:49:56.462Z,20.84
2017-07-19T02:50:52.689Z,20.84
2017-07-19T02:51:48.930Z,20.82
2017-07-19T02:52:45.166Z,20.81
2017-07-19T02:53:41.397Z,20.80
2017-07-19T02:54:37.623Z,20.78
2017-07-19T02:55:33.851Z,20.79
2017-07-19T02:56:30.082Z,20.78
2017-07-19T02:57:26.319Z,20.77
2017-07-19T02:58:22.562Z,20.75
2017-07-19T02:59:18.817Z,20.74
2017-07-19T03:00:15.043Z,20.72
2017-07-19T03:01:11.283Z,20.72
2017-07-19T03:02:07.524Z,20.70
2017-07-19T03:03:03.750Z,20.70
2017-07-19T03:04:00.018Z,20.68
2017-07-19T03:04:56.250Z,20.68
2017-07-19T03:05:52.482Z,20.66
2017-07-19T03:06:48.701Z,20.66
2017-07-19T03:07:44.935Z,20.66
2017-07-19T03:08:41.174Z,20.65
2017-07-19T03:09:37.430Z,20.65
2017-07-19T03:10:33.659Z,20.65
2017-07-19T03:11:29.894Z,20.63
2017-07-19T03:12:26.138Z,20.63
2017-07-19T03:13:22.365Z,20.62
2017-07-19T03:14:18.598Z,20.62
2017-07-19T03:15:14.823Z,20.60
2017-07-19T03:16:11.050Z,20.60
2017-07-19T03:17:07.285Z,20.59
2017-07-19T03:18:03.522Z,20.58
2017-07-19T03:18:59.753Z,20.59
2017-07-19T03:19:55.994Z,20.58
2017-07-19T03:20:52.217Z,20.56
2017-07-19T03:21:48.449Z,20.56
2017-07-19T03:22:44.666Z,20.55
2017-07-19T03:23:40.901Z,20.55
2017-07-19T03:24:37.164Z,20.53
2017-07-19T03:25:33.403Z,20.53
2017-07-19T03:26:29.642Z,20.52
2017-07-19T03:27:25.886Z,20.51
2017-07-19T03:28:22.110Z,20.51
2017-07-19T03:29:18.370Z,20.50
2017-07-19T03:30:14.611Z,20.50
2017-07-19T03:31:10.834Z,20.49
2017-07-19T03:32:07.078Z,20.47
2017-07-19T03:33:03.334Z,20.46
2017-07-19T03:33:59.567Z,20.46
2017-07-19T03:34:55.826Z,20.45
2017-07-19T03:35:52.064Z,20.44
2017-07-19T03:36:48.302Z,20.42
2017-07-19T03:37:44.538Z,20.42
2017-07-19T03:38:40.789Z,20.43
2017-07-19T03:39:37.022Z,20.41
2017-07-19T03:40:33.253Z,20.41
2017-07-19T03:41:29.495Z,20.39
2017-07-19T03:42:25.730Z,20.38
2017-07-19T03:43:21.954Z,20.51
2017-07-19T03:44:18.188Z,20.78
2017-07-19T03:45:14.439Z,21.02
2017-07-19T03:46:10.686Z,21.23
2017-07-19T03:47:06.914Z,21.39
2017-07-19T03:48:03.146Z,21.51
2017-07-19T03:48:59.382Z,21.61
2017-07-19T03:49:55.611Z,21.70
2017-07-19T03:50:51.878Z,21.78
2017-07-19T03:51:48.110Z,21.83
2017-07-19T03:52:44.342Z,21.89
2017-07-19T03:53:40.576Z,21.93
2017-07-19T03:54:36.812Z,21.98
2017-07-19T03:55:33.085Z,22.01
2017-07-19T03:56:29.323Z,22.04
2017-07-19T03:57:25.563Z,22.09
2017-07-19T03:58:21.795Z,22.11
2017-07-19T03:59:18.022Z,22.14
2017-07-19T04:00:14.254Z,22.16
2017-07-19T04:01:10.498Z,22.17
2017-07-19T04:02:06.744Z,22.21
2017-07-19T04:03:02.983Z,22.21
2017-07-19T04:03:59.223Z,22.24
2017-07-19T04:04:55.446Z,22.26
2017-07-19T04:05:51.681Z,22.27
2017-07-19T04:06:47.934Z,22.29
2017-07-19T04:07:44.170Z,22.29
2017-07-19T04:08:40.398Z,22.30
2017-07-19T04:09:36.621Z,22.32
2017-07-19T04:10:32.847Z,22.33
2017-07-19T04:11:29.070Z,22.34
2017-07-19T04:12:25.331Z,22.33
2017-07-19T04:13:21.555Z,22.34
2017-07-19T04:14:17.777Z,22.34
2017-07-19T04:15:14.007Z,22.36
2017-07-19T04:16:10.282Z,22.37
2017-07-19T04:17:06.521Z,22.39
2017-07-19T04:18:02.746Z,22.39
2017-07-19T04:18:58.978Z,22.40
2017-07-19T04:19:55.219Z,22.40
2017-07-19T04:20:51.458Z,22.42
2017-07-19T04:21:47.693Z,22.42
2017-07-19T04:22:43.934Z,22.43
2017-07-19T04:23:40.174Z,22.45
2017-07-19T04:24:36.582Z,22.45
2017-07-19T04:25:32.814Z,22.46
2017-07-19T04:26:29.115Z,22.48
2017-07-19T04:27:25.409Z,22.49
2017-07-19T04:28:21.708Z,22.50
2017-07-19T04:29:18.002Z,22.51
2017-07-19T04:30:14.286Z,22.51
2017-07-19T04:31:10.515Z,22.53
2017-07-19T04:32:06.757Z,22.54
2017-07-19T04:33:03.006Z,22.55
2017-07-19T04:33:59.238Z,22.55
2017-07-19T04:34:55.458Z,22.55
2017-07-19T04:35:51.674Z,22.56
2017-07-19T04:36:47.947Z,22.56
2017-07-19T04:37:44.167Z,22.56
2017-07-19T04:38:40.413Z,22.57
2017-07-19T04:39:36.646Z,22.58
2017-07-19T04:40:32.861Z,22.59
2017-07-19T04:41:29.082Z,22.61
2017-07-19T04:42:25.322Z,22.63
2017-07-19T04:43:21.575Z,22.64
2017-07-19T04:44:17.801Z,22.66
2017-07-19T04:45:14.034Z,22.67
2017-07-19T04:46:10.259Z,22.68
2017-07-19T04:47:06.485Z,22.68
2017-07-19T04:48:02.714Z,22.68
2017-07-19T04:48:58.945Z,22.69
2017-07-19T04:49:55.166Z,22.71
2017-07-19T04:50:51.398Z,22.71
2017-07-19T04:51:47.626Z,22.71
2017-07-19T04:52:43.895Z,22.72
2017-07-19T04:53:40.142Z,22.72
2017-07-19T04:54:36.378Z,22.73
2017-07-19T04:55:32.621Z,22.74
2017-07-19T04:56:28.850Z,22.73
2017-07-19T04:57:25.563Z,22.74
2017-07-19T04:58:21.773Z,22.75
2017-07-19T04:59:18.047Z,22.74
2017-07-19T05:00:14.313Z,22.78
2017-07-19T05:01:10.598Z,22.78
2017-07-19T05:02:06.843Z,22.79
2017-07-19T05:03:03.070Z,22.80
2017-07-19T05:03:59.292Z,22.80
2017-07-19T05:04:55.545Z,22.81
2017-07-19T05:05:51.779Z,22.82
2017-07-19T05:06:48.021Z,22.83
2017-07-19T05:07:44.242Z,22.85
2017-07-19T05:08:40.481Z,22.86
2017-07-19T05:09:36.707Z,22.86
2017-07-19T05:10:32.936Z,22.87
2017-07-19T05:11:29.173Z,22.87
2017-07-19T05:12:25.414Z,22.87
2017-07-19T05:13:21.641Z,22.86
2017-07-19T05:14:17.874Z,22.85
2017-07-19T05:15:14.102Z,22.85
2017-07-19T05:16:10.341Z,22.86
2017-07-19T05:17:06.561Z,22.85
2017-07-19T05:18:02.782Z,22.84
2017-07-19T05:18:59.022Z,22.85
2017-07-19T05:19:55.257Z,22.84
2017-07-19T05:20:51.489Z,22.84
2017-07-19T05:21:47.709Z,22.83
2017-07-19T07:45:25.418Z,24.00
2017-07-19T07:46:23.583Z,24.02
2017-07-19T07:47:20.106Z,24.04
2017-07-19T07:48:20.727Z,24.05
2017-07-19T07:49:17.937Z,24.09
2017-07-19T07:50:14.494Z,24.10
2017-07-19T07:51:11.017Z,24.12
2017-07-19T07:52:07.606Z,24.14
2017-07-19T07:53:03.867Z,24.16
2017-07-19T07:54:00.115Z,24.18
2017-07-19T07:54:56.357Z,24.22
2017-07-19T07:55:52.620Z,24.22
2017-07-19T07:56:48.864Z,24.25
2017-07-19T07:57:45.123Z,24.27
2017-07-19T07:58:41.378Z,24.29
2017-07-19T07:59:37.627Z,24.31
2017-07-19T08:00:33.899Z,24.34
2017-07-19T08:01:30.152Z,24.37
2017-07-19T08:02:26.421Z,24.39
2017-07-19T08:03:22.667Z,24.41
2017-07-19T08:04:18.907Z,24.44
2017-07-19T08:05:15.187Z,24.47
2017-07-19T08:06:11.463Z,24.49
2017-07-19T08:07:07.767Z,24.52
2017-07-19T08:08:04.014Z,24.53
2017-07-19T08:09:00.247Z,24.56
2017-07-19T08:09:56.482Z,24.59
2017-07-19T08:10:52.726Z,24.60
2017-07-19T08:11:48.995Z,24.63
2017-07-19T08:12:45.254Z,24.65
2017-07-19T08:13:41.493Z,24.68
2017-07-19T08:14:37.747Z,24.70
2017-07-19T08:15:33.994Z,24.73
2017-07-19T08:16:30.259Z,24.75
2017-07-19T08:17:26.511Z,24.80
2017-07-19T08:18:23.664Z,24.83
2017-07-19T08:19:19.906Z,24.88
2017-07-19T08:20:16.147Z,24.93
2017-07-19T08:21:12.410Z,24.96
2017-07-19T08:22:08.673Z,25.00
2017-07-19T08:23:04.943Z,25.06
2017-07-19T08:24:01.182Z,25.09
2017-07-19T08:24:57.441Z,25.13
2017-07-19T08:25:53.685Z,25.17
2017-07-19T08:26:49.941Z,25.21
2017-07-19T08:27:46.827Z,25.24
2017-07-19T08:28:43.059Z,25.28
2017-07-19T08:29:39.303Z,25.32
2017-07-19T08:30:35.548Z,25.37
2017-07-19T08:31:31.790Z,25.39
2017-07-19T08:32:28.072Z,25.42
2017-07-19T08:33:24.319Z,25.46
2017-07-19T08:34:20.560Z,25.48
2017-07-19T08:35:16.815Z,25.52
2017-07-19T08:36:13.058Z,25.55
2017-07-19T08:37:09.546Z,25.57
2017-07-19T08:38:05.802Z,25.61
2017-07-19T08:39:02.051Z,25.65
2017-07-19T08:39:58.482Z,25.67
2017-07-19T08:40:54.738Z,25.70
2017-07-19T08:41:50.982Z,25.73
2017-07-19T08:42:47.223Z,25.75
2017-07-19T08:43:43.495Z,25.78
2017-07-19T08:44:39.787Z,25.82
2017-07-19T08:45:36.035Z,25.84
2017-07-19T08:46:32.275Z,25.86
2017-07-19T08:47:28.518Z,25.89
2017-07-19T08:48:24.755Z,25.92
2017-07-19T08:49:21.022Z,25.95
2017-07-19T08:50:17.246Z,25.98
2017-07-19T08:51:13.492Z,26.01
2017-07-19T08:52:09.731Z,26.05
2017-07-19T08:53:05.970Z,26.08
2017-07-19T08:54:02.215Z,26.11
2017-07-19T08:54:58.463Z,26.14
2017-07-19T08:55:54.702Z,26.19
2017-07-19T08:56:50.931Z,26.23
2017-07-19T08:57:47.167Z,26.27
2017-07-19T08:58:43.406Z,26.30
2017-07-19T08:59:39.666Z,26.36
2017-07-19T09:00:35.898Z,26.40
2017-07-19T09:01:32.168Z,26.44
2017-07-19T09:02:28.407Z,26.48
2017-07-19T09:03:24.642Z,26.53
2017-07-19T09:04:20.919Z,26.57
2017-07-19T09:05:17.153Z,26.62
2017-07-19T09:06:13.390Z,26.67
2017-07-19T09:07:09.631Z,26.76
2017-07-19T09:08:05.865Z,26.86
2017-07-19T09:09:02.106Z,26.96
2017-07-19T09:09:58.390Z,27.10
2017-07-19T09:10:54.621Z,27.23
2017-07-19T09:11:50.864Z,27.36
2017-07-19T09:12:47.110Z,27.53
2017-07-19T09:13:43.347Z,27.66
2017-07-19T09:14:39.591Z,27.80
2017-07-19T09:15:35.838Z,27.96
2017-07-19T09:16:32.083Z,28.11
2017-07-19T09:17:28.335Z,28.26
2017-07-19T09:18:24.574Z,28.41
2017-07-19T09:19:20.835Z,28.55
2017-07-19T09:20:17.095Z,28.68
2017-07-19T09:21:13.351Z,28.81
2017-07-19T09:22:09.598Z,28.95
2017-07-19T09:23:05.844Z,29.09
2017-07-19T09:24:02.082Z,29.23
2017-07-19T09:24:58.323Z,29.37
2017-07-19T09:25:54.584Z,29.50
2017-07-19T09:26:50.810Z,29.64
2017-07-19T09:27:47.053Z,29.76
2017-07-19T09:28:43.294Z,29.87
2017-07-19T09:29:39.546Z,29.98
2017-07-19T09:30:35.814Z,30.10
2017-07-19T09:31:32.058Z,30.21
2017-07-19T09:32:28.306Z,30.31
2017-07-19T09:33:24.542Z,30.42
2017-07-19T09:34:20.790Z,30.52
2017-07-19T09:35:17.047Z,30.62
2017-07-19T09:36:13.302Z,30.71
2017-07-19T09:37:09.538Z,30.82
2017-07-19T09:38:05.778Z,30.91
2017-07-19T09:39:02.031Z,31.00
2017-07-19T09:39:58.311Z,31.11
2017-07-19T09:40:54.559Z,31.20
2017-07-19T09:41:50.810Z,31.30
2017-07-19T09:42:47.051Z,31.41
2017-07-19T09:43:43.287Z,31.50
2017-07-19T09:44:39.546Z,31.61
2017-07-19T09:45:35.783Z,31.71
2017-07-19T09:46:32.044Z,31.79
2017-07-19T09:47:28.299Z,31.87
2017-07-19T09:48:24.563Z,31.95
2017-07-19T09:49:20.813Z,32.03
2017-07-19T09:50:17.047Z,32.12
2017-07-19T09:51:13.400Z,32.22
2017-07-19T09:52:09.651Z,32.30
2017-07-19T09:53:05.895Z,32.37
2017-07-19T09:54:02.155Z,32.44
2017-07-19T09:54:58.410Z,32.52
2017-07-19T09:55:54.675Z,32.59
2017-07-19T09:56:50.971Z,32.66
2017-07-19T09:57:47.214Z,32.71
2017-07-19T09:58:43.448Z,32.78
2017-07-19T09:59:39.690Z,32.82
2017-07-19T10:00:35.958Z,32.88
2017-07-19T10:01:32.207Z,32.95
2017-07-19T10:02:28.458Z,32.99
2017-07-19T10:03:24.691Z,33.03
2017-07-19T10:04:20.931Z,33.09
2017-07-19T10:05:17.170Z,33.15
2017-07-19T10:06:13.514Z,33.20
2017-07-19T10:07:09.764Z,33.25
2017-07-19T10:08:06.024Z,33.28
2017-07-19T10:09:02.279Z,33.31
2017-07-19T10:09:58.574Z,33.33
2017-07-19T10:10:54.819Z,33.36
2017-07-19T10:11:51.071Z,33.39
2017-07-19T10:12:47.340Z,33.43
2017-07-19T10:13:43.587Z,33.46
2017-07-19T10:14:39.834Z,33.47
2017-07-19T10:15:36.108Z,33.49
2017-07-19T10:16:32.366Z,33.54
2017-07-19T10:17:28.622Z,33.56
2017-07-19T10:18:24.866Z,33.56
2017-07-19T10:19:21.102Z,33.59
2017-07-19T10:20:17.351Z,33.59
2017-07-19T10:21:13.609Z,33.60
2017-07-19T10:22:09.851Z,33.61
2017-07-19T10:23:06.099Z,33.63
2017-07-19T10:24:02.343Z,33.65
2017-07-19T10:24:58.594Z,33.64
2017-07-19T10:25:54.831Z,33.65
2017-07-19T10:26:51.084Z,33.65
2017-07-19T10:27:47.322Z,33.66
2017-07-19T10:28:43.579Z,33.66
2017-07-19T10:29:39.839Z,33.67
2017-07-19T10:30:36.082Z,33.68
2017-07-19T10:31:32.318Z,33.71
2017-07-19T10:32:28.576Z,33.72
2017-07-19T10:33:24.855Z,33.74
2017-07-19T10:34:21.102Z,33.77
2017-07-19T10:35:17.337Z,33.79
2017-07-19T10:36:13.571Z,33.80
2017-07-19T10:37:09.810Z,33.81
2017-07-19T10:38:06.051Z,33.82
2017-07-19T10:39:02.310Z,33.82
2017-07-19T10:39:59.138Z,33.83
2017-07-19T10:40:55.386Z,33.83
2017-07-19T10:41:51.646Z,33.83
2017-07-19T10:42:47.894Z,33.84
2017-07-19T10:43:44.154Z,33.85
2017-07-19T10:44:40.392Z,33.86
2017-07-19T10:45:36.634Z,33.85
2017-07-19T10:46:33.236Z,33.86
2017-07-19T10:47:29.495Z,33.87
2017-07-19T10:48:25.734Z,33.87
2017-07-19T10:49:22.002Z,33.87
2017-07-19T10:50:18.254Z,33.86
2017-07-19T10:51:14.507Z,33.86
2017-07-19T10:52:10.742Z,33.86
2017-07-19T10:53:06.987Z,33.86
2017-07-19T10:54:03.250Z,33.87
2017-07-19T10:54:59.493Z,33.88
2017-07-19T10:55:55.739Z,33.90
2017-07-19T10:56:51.987Z,33.91
2017-07-19T10:57:48.227Z,33.92
2017-07-19T10:58:44.475Z,33.93
2017-07-19T10:59:40.759Z,33.94
2017-07-19T11:00:36.994Z,33.98
2017-07-19T11:01:33.230Z,33.97
2017-07-19T11:02:29.467Z,34.00
2017-07-19T11:03:25.715Z,34.02
2017-07-19T11:04:22.096Z,34.04
2017-07-19T11:05:18.407Z,34.06
2017-07-19T11:06:14.662Z,34.09
2017-07-19T11:07:10.907Z,34.10
2017-07-19T11:08:07.143Z,34.13
2017-07-19T11:09:03.379Z,34.14
2017-07-19T11:09:59.662Z,34.16
2017-07-19T11:10:55.918Z,34.17
2017-07-19T11:11:52.156Z,34.18
2017-07-19T11:12:48.393Z,34.19
2017-07-19T11:13:44.639Z,34.19
2017-07-19T11:14:40.890Z,34.21
2017-07-19T11:15:37.131Z,34.24
2017-07-19T11:16:33.366Z,34.25
2017-07-19T11:17:29.606Z,34.27
2017-07-19T11:18:25.847Z,34.29
2017-07-19T11:19:22.095Z,34.32
2017-07-19T11:20:18.359Z,34.36
2017-07-19T11:21:14.603Z,34.38
2017-07-19T11:22:10.861Z,34.42
2017-07-19T11:23:07.102Z,34.47
2017-07-19T11:24:03.351Z,34.50
2017-07-19T11:24:59.606Z,34.56
2017-07-19T11:25:55.859Z,34.58
2017-07-19T11:26:52.105Z,34.63
2017-07-19T11:27:48.346Z,34.68
2017-07-19T11:28:44.597Z,34.74
2017-07-19T11:29:40.830Z,34.77
2017-07-19T11:30:37.094Z,34.82
2017-07-19T11:31:33.322Z,34.89
2017-07-19T11:32:29.568Z,34.92
2017-07-19T11:33:25.806Z,34.96
2017-07-19T11:34:22.052Z,34.99
2017-07-19T11:35:18.292Z,35.01
2017-07-19T11:36:14.554Z,35.03
2017-07-19T11:37:10.799Z,35.04
2017-07-19T11:38:07.034Z,35.05
2017-07-19T11:39:03.274Z,35.06
2017-07-19T11:39:59.523Z,35.07
2017-07-19T11:40:55.803Z,35.08
2017-07-19T11:41:52.047Z,35.08
2017-07-19T11:42:48.302Z,35.10
2017-07-19T11:43:44.534Z,35.12
2017-07-19T11:44:40.773Z,35.13
2017-07-19T11:45:37.010Z,35.15
2017-07-19T11:46:33.510Z,35.18
2017-07-19T11:47:29.758Z,35.21
2017-07-19T11:48:26.002Z,35.24
2017-07-19T11:49:22.250Z,35.27
2017-07-19T11:50:18.495Z,35.29
2017-07-19T11:51:14.758Z,35.30
2017-07-19T11:52:11.008Z,35.30
2017-07-19T11:53:07.250Z,35.31
2017-07-19T11:54:03.496Z,35.31
2017-07-19T11:54:59.740Z,35.33
2017-07-19T11:55:55.990Z,35.35
2017-07-19T11:56:52.247Z,35.36
2017-07-19T11:57:48.499Z,35.37
2017-07-19T11:58:44.730Z,35.40
2017-07-19T11:59:40.970Z,35.42
2017-07-19T12:00:37.202Z,35.45
2017-07-19T12:01:33.479Z,35.47
2017-07-19T12:02:29.738Z,35.50
2017-07-19T12:03:25.992Z,35.53
2017-07-19T12:04:22.230Z,35.56
2017-07-19T12:05:18.463Z,35.60
2017-07-19T12:06:14.706Z,35.63
2017-07-19T12:07:10.965Z,35.65
2017-07-19T12:08:07.207Z,35.68
2017-07-19T12:09:03.438Z,35.70
2017-07-19T12:09:59.682Z,35.70
2017-07-19T12:10:55.919Z,35.71
2017-07-19T12:11:52.168Z,35.72
2017-07-19T12:12:48.435Z,35.74
2017-07-19T12:13:44.691Z,35.76
2017-07-19T12:14:40.942Z,35.78
2017-07-19T12:15:37.191Z,35.79
2017-07-19T12:16:33.538Z,35.84
2017-07-19T12:17:29.798Z,35.85
2017-07-19T12:18:26.036Z,35.87
2017-07-19T12:19:22.287Z,35.89
2017-07-19T12:20:18.627Z,35.90
2017-07-19T12:21:14.999Z,35.92
2017-07-19T12:22:11.231Z,35.94
2017-07-19T12:23:07.527Z,35.94
2017-07-19T12:24:03.764Z,35.96
2017-07-19T12:25:00.027Z,35.97
2017-07-19T12:25:56.267Z,35.97
2017-07-19T12:26:52.502Z,35.95
2017-07-19T12:27:48.739Z,35.93
2017-07-19T12:28:44.998Z,35.94
2017-07-19T12:29:41.236Z,35.93
2017-07-19T12:30:37.491Z,35.92
2017-07-19T12:31:33.738Z,35.94
2017-07-19T12:32:29.983Z,35.95
2017-07-19T12:33:26.247Z,35.96
2017-07-19T12:34:22.510Z,35.96
2017-07-19T12:35:18.754Z,35.98
2017-07-19T12:36:15.002Z,36.01
2017-07-19T12:37:11.251Z,36.02
2017-07-19T12:38:07.503Z,36.03
2017-07-19T12:39:04.046Z,36.05
2017-07-19T12:40:00.335Z,36.07
2017-07-19T12:40:56.586Z,36.08
2017-07-19T12:41:52.835Z,36.10
2017-07-19T12:42:49.082Z,36.12
2017-07-19T12:43:45.358Z,36.14
2017-07-19T12:44:41.630Z,36.13
2017-07-19T12:45:37.875Z,36.14
2017-07-19T12:46:34.118Z,36.15
2017-07-19T12:47:30.373Z,36.15
2017-07-19T12:48:26.640Z,36.15
2017-07-19T12:49:22.871Z,36.13
2017-07-19T12:50:19.131Z,36.12
2017-07-19T12:51:15.386Z,36.11
2017-07-19T12:52:11.626Z,36.10
2017-07-19T12:53:07.898Z,36.09
2017-07-19T12:54:04.162Z,36.07
2017-07-19T12:55:00.422Z,36.08
2017-07-19T12:55:56.726Z,36.09
2017-07-19T12:56:52.967Z,36.11
2017-07-19T12:57:49.218Z,36.13
2017-07-19T12:58:45.466Z,36.14
2017-07-19T12:59:41.742Z,36.14
2017-07-19T13:00:37.999Z,36.13
2017-07-19T13:01:34.254Z,36.13
2017-07-19T13:02:30.511Z,36.13
2017-07-19T13:03:26.750Z,36.11
2017-07-19T13:04:22.990Z,36.10
2017-07-19T13:05:19.274Z,36.08
2017-07-19T13:06:15.526Z,36.07
2017-07-19T13:07:11.770Z,36.08
2017-07-19T13:08:08.026Z,36.09
2017-07-19T13:09:04.262Z,36.10
2017-07-19T13:10:00.508Z,36.11
2017-07-19T13:10:56.770Z,36.11
2017-07-19T13:11:53.011Z,36.10
2017-07-19T13:12:49.254Z,36.11
2017-07-19T13:13:45.555Z,36.11
2017-07-19T13:14:41.819Z,36.12
2017-07-19T13:15:38.095Z,36.11
2017-07-19T13:16:34.354Z,36.14
2017-07-19T13:17:30.598Z,36.14
2017-07-19T13:18:26.842Z,36.15
2017-07-19T13:19:23.086Z,36.17
2017-07-19T13:20:19.334Z,36.21
2017-07-19T13:21:15.611Z,36.21
2017-07-19T13:22:11.874Z,36.21
2017-07-19T13:23:08.117Z,36.22
2017-07-19T13:24:04.380Z,36.22
2017-07-19T13:25:00.623Z,36.23
2017-07-19T13:25:56.899Z,36.23
2017-07-19T13:26:53.153Z,36.22
2017-07-19T13:27:49.405Z,36.21
2017-07-19T13:28:45.655Z,36.19
2017-07-19T13:29:41.918Z,36.20
2017-07-19T13:30:38.184Z,36.18
2017-07-19T13:31:34.434Z,36.17
2017-07-19T13:32:30.683Z,36.16
2017-07-19T13:33:26.943Z,36.16
2017-07-19T13:34:23.206Z,36.17
2017-07-19T13:35:19.450Z,36.17
2017-07-19T13:36:15.702Z,36.17
2017-07-19T13:37:11.950Z,36.16
2017-07-19T13:38:08.219Z,36.14
2017-07-19T13:39:04.499Z,36.11
2017-07-19T13:40:00.738Z,36.09
2017-07-19T13:40:57.002Z,36.05
2017-07-19T13:41:53.283Z,35.99
2017-07-19T13:42:49.547Z,35.93
2017-07-19T13:43:45.791Z,35.88
2017-07-19T13:44:42.035Z,35.82
2017-07-19T13:45:38.289Z,35.78
2017-07-19T13:46:34.583Z,35.75
2017-07-19T13:47:30.828Z,35.73
2017-07-19T13:48:27.084Z,35.70
2017-07-19T13:49:23.334Z,35.68
2017-07-19T13:50:19.588Z,35.69
2017-07-19T13:51:15.843Z,35.70
2017-07-19T13:52:12.110Z,35.69
2017-07-19T13:53:08.353Z,35.71
2017-07-19T13:54:04.611Z,35.73
2017-07-19T13:55:00.858Z,35.74
2017-07-19T13:55:57.108Z,35.76
2017-07-19T13:56:53.371Z,35.79
2017-07-19T13:57:49.655Z,35.81
2017-07-19T13:58:45.907Z,35.83
2017-07-19T13:59:42.162Z,35.86
2017-07-19T14:00:38.406Z,35.86
2017-07-19T14:01:34.679Z,35.87
2017-07-19T14:02:30.965Z,35.88
2017-07-19T14:03:27.223Z,35.88
2017-07-19T14:04:24.274Z,35.87
2017-07-19T14:05:20.519Z,35.88
2017-07-19T14:06:16.861Z,35.87
2017-07-19T14:07:13.106Z,35.87
2017-07-19T14:08:09.358Z,35.87
2017-07-19T14:09:05.614Z,35.88
2017-07-19T14:10:01.850Z,35.87
2017-07-19T14:10:58.111Z,35.88
2017-07-19T14:11:54.370Z,35.87
2017-07-19T14:12:50.622Z,35.88
2017-07-19T14:13:46.886Z,35.88
2017-07-19T14:14:43.130Z,35.87
2017-07-19T14:15:39.380Z,35.86
2017-07-19T14:16:35.622Z,35.84
2017-07-19T14:17:31.883Z,35.84
2017-07-19T14:18:28.134Z,35.83
2017-07-19T14:19:24.403Z,35.85
2017-07-19T14:20:20.669Z,35.85
2017-07-19T14:21:17.090Z,35.85
2017-07-19T14:22:13.423Z,35.86
2017-07-19T14:23:09.726Z,35.87
2017-07-19T14:24:06.003Z,35.89
2017-07-19T14:25:02.267Z,35.87
2017-07-19T14:25:58.531Z,35.88
2017-07-19T14:26:54.775Z,35.88